DAA weather

Davison Army Air Field
Fort Belvoir, Virginia, United States

Public forecast

Using degrees Fahrenheit for public forecast. Weather courtesy of forecast.io.

Current aviation weather report (METAR) for Davison Army Air Field

Retrieved 2020/07/04 00:56 UTC (1 hour ago):

KDAA 040056Z AUTO 00000KT 10SM CLR 27/22 A2984 RMK AO2 SLP107 T02670216

Aviation forecast (TAF) for Davison Army Air Field

Forecast is more than 12 hours old.

Retrieved 2020-07-03 01:28 UTC (1 day ago):

TAF KDAA 030100Z 0301/0407 35006KT 9999 FEW040 QNH2983INS BECMG 0314/0315 33010G15KT 9999 FEW090 QNH2983INS BECMG 0320/0321 35006KT 9999 SCT060 QNH2981INS TX33/0320Z TN21/0310Z LAST NO AMDS AFT 0301 NEXT 0609